Time;durP1;ratioP1;P1;durP2;ratioP2;P2;SDS_P1;SDS_P2;PMS_P1;PMS_P2;Temp;Humidity;BMP_temperature;BMP_pressure;BME280_temperature;BME280_humidity;BME280_pressure;Samples;Min_cycle;Max_cycle;Signal;HPM_P1;HPM_P2
2023/01/30 00:00:34;;;;;;;;;42.25;37.50;;;;;5.22;73.99;101797.09;4975794;28;45311;-71
2023/01/30 00:03:00;;;;;;;;;42.00;39.00;;;;;5.21;74.45;101795.34;5008907;27;45274;-71
2023/01/30 00:05:26;;;;;;;;;41.25;38.00;;;;;5.19;74.98;101797.09;4973069;28;45591;-71
2023/01/30 00:07:51;;;;;;;;;41.00;36.25;;;;;5.16;74.50;101807.50;4974380;28;46090;-72
2023/01/30 00:10:17;;;;;;;;;43.25;37.75;;;;;5.11;74.40;101803.16;4973189;28;45379;-71
2023/01/30 00:12:42;;;;;;;;;39.00;36.50;;;;;5.08;75.08;101795.34;4974151;28;45363;-70
2023/01/30 00:15:09;;;;;;;;;39.25;36.75;;;;;5.16;74.91;101802.31;4965814;28;45438;-70
2023/01/30 00:17:34;;;;;;;;;40.00;37.00;;;;;5.08;74.74;101784.03;4953327;28;48075;-70
2023/01/30 00:20:00;;;;;;;;;41.50;37.75;;;;;5.08;74.75;101774.47;4955277;28;45422;-72
2023/01/30 00:22:25;;;;;;;;;45.00;37.75;;;;;5.17;74.66;101781.44;4954770;28;45425;-69
2023/01/30 00:24:51;;;;;;;;;36.50;35.50;;;;;5.17;74.55;101773.63;5054122;28;45333;-70
2023/01/30 00:27:16;;;;;;;;;51.00;42.00;;;;;5.16;74.60;101771.00;4953477;28;46103;-70
2023/01/30 00:29:41;;;;;;;;;39.25;37.00;;;;;5.18;74.47;101761.44;4953082;28;45278;-70
2023/01/30 00:32:07;;;;;;;;;44.25;37.75;;;;;5.16;75.43;101755.34;4954061;28;45347;-70
2023/01/30 00:34:33;;;;;;;;;41.25;36.50;;;;;5.17;74.78;101754.47;4952450;28;45285;-72
2023/01/30 00:36:59;;;;;;;;;42.25;37.25;;;;;5.20;74.50;101752.75;4954312;28;45665;-70
2023/01/30 00:39:24;;;;;;;;;41.50;36.25;;;;;5.18;75.09;101751.00;4965856;28;45466;-70
2023/01/30 00:47:18;;;;;;;;;37.50;35.75;;;;;5.16;74.90;101739.69;4973894;28;45403;-71
2023/01/30 00:49:43;;;;;;;;;37.50;33.75;;;;;5.15;74.76;101732.75;4973530;28;45240;-72
2023/01/30 00:52:08;;;;;;;;;38.25;36.50;;;;;5.11;75.13;101719.69;4972140;28;55940;-71
2023/01/30 00:54:33;;;;;;;;;35.00;33.50;;;;;5.22;74.61;101732.75;4975201;28;46782;-71
2023/01/30 00:56:59;;;;;;;;;35.75;34.00;;;;;5.26;74.84;101736.22;4975319;28;46128;-73
2023/01/30 00:59:26;;;;;;;;;33.75;33.00;;;;;5.18;75.02;101711.88;4976014;28;45297;-72
2023/01/30 01:01:51;;;;;;;;;38.75;36.50;;;;;5.30;74.39;101721.47;4975988;28;45418;-70
2023/01/30 01:04:16;;;;;;;;;38.00;34.75;;;;;5.30;74.33;101713.63;4975396;28;45429;-74
2023/01/30 01:06:42;;;;;;;;;40.00;36.50;;;;;5.28;74.28;101713.63;4973572;28;48165;-70
2023/01/30 01:09:07;;;;;;;;;37.50;35.50;;;;;5.27;74.52;101704.06;4975378;28;45406;-71
2023/01/30 01:11:33;;;;;;;;;40.75;37.25;;;;;5.30;74.59;101705.81;4973826;28;46734;-72
2023/01/30 01:14:00;;;;;;;;;37.75;35.00;;;;;5.31;74.88;101713.66;4975144;28;45420;-70
2023/01/30 01:16:27;;;;;;;;;28.50;28.50;;;;;5.31;74.77;101708.44;4975260;28;46393;-70
2023/01/30 01:18:53;;;;;;;;;34.50;33.50;;;;;5.31;74.46;101705.81;4973721;28;45511;-73
2023/01/30 01:21:20;;;;;;;;;34.75;33.75;;;;;5.28;74.58;101697.97;4974972;28;45311;-75
2023/01/30 01:23:53;;;;;;;;;38.25;35.75;;;;;5.30;74.56;101696.25;4974691;28;45308;-74
2023/01/30 01:26:19;;;;;;;;;32.25;31.75;;;;;5.28;74.43;101687.53;4973856;28;48553;-72
2023/01/30 01:28:45;;;;;;;;;36.50;33.25;;;;;5.22;73.99;101677.97;4975541;28;45260;-70
2023/01/30 01:31:12;;;;;;;;;30.00;30.00;;;;;5.17;74.35;101665.78;4992070;28;45390;-71
2023/01/30 01:33:38;;;;;;;;;31.25;31.25;;;;;5.27;74.27;101680.56;4992581;28;45442;-69
2023/01/30 01:36:04;;;;;;;;;34.00;33.00;;;;;5.23;74.77;101678.84;4992924;28;45490;-71
2023/01/30 01:38:30;;;;;;;;;40.50;35.75;;;;;5.26;74.02;101684.94;4993013;27;45655;-70
2023/01/30 01:41:01;;;;;;;;;34.50;32.75;;;;;5.28;74.22;101682.31;4993247;28;45460;-69
2023/01/30 01:43:29;;;;;;;;;35.50;33.75;;;;;5.29;74.14;101685.81;4992975;28;45488;-70
2023/01/30 01:46:02;;;;;;;;;31.50;31.25;;;;;5.32;74.10;101686.69;4991070;28;46317;-70
2023/01/30 01:48:31;;;;;;;;;39.00;35.75;;;;;5.32;73.95;101678.84;4994186;28;45748;-69
2023/01/30 01:51:35;;;;;;;;;37.75;34.25;;;;;5.33;74.13;101672.78;4993781;28;45779;-71
2023/01/30 01:54:18;;;;;;;;;36.25;34.00;;;;;5.30;73.84;101667.56;5014052;28;45466;-69
2023/01/30 01:56:47;;;;;;;;;35.00;33.75;;;;;5.36;73.95;101677.97;4994190;28;45937;-72
2023/01/30 01:59:20;;;;;;;;;33.50;32.50;;;;;5.37;73.60;101671.91;4994221;28;45231;-70
2023/01/30 02:01:48;;;;;;;;;42.25;36.25;;;;;5.38;74.01;101678.84;4994160;28;45395;-71
2023/01/30 02:05:00;;;;;;;;;32.00;31.00;;;;;5.40;74.12;101673.63;4993049;28;45246;-72
2023/01/30 02:06:59;;;;;;;;;36.75;34.25;;;;;5.38;73.79;101665.81;4994604;27;45326;-72
2023/01/30 02:09:24;;;;;;;;;31.25;31.00;;;;;5.38;73.43;101667.53;4994085;27;45359;-70
2023/01/30 02:11:57;;;;;;;;;36.25;34.75;;;;;5.39;73.52;101675.38;4994091;27;45678;-70
2023/01/30 02:14:24;;;;;;;;;32.75;30.50;;;;;5.40;73.78;101677.09;4994588;28;45412;-68
2023/01/30 02:16:49;;;;;;;;;32.50;32.00;;;;;5.40;73.58;101681.44;4992609;27;46213;-72
2023/01/30 02:19:37;;;;;;;;;31.00;31.00;;;;;5.39;73.97;101670.16;4994507;28;45409;-68
2023/01/30 02:22:39;;;;;;;;;28.00;25.00;;;;;5.40;73.69;101673.63;4995228;28;45362;-70
2023/01/30 02:25:18;;;;;;;;;37.00;35.25;;;;;5.39;73.09;101661.44;4993959;28;45694;-70
2023/01/30 02:27:49;;;;;;;;;34.75;32.75;;;;;5.38;73.87;101660.59;4993775;28;45441;-69
2023/01/30 02:30:45;;;;;;;;;31.00;31.00;;;;;5.39;73.55;101664.94;4994228;28;45247;-67
2023/01/30 02:33:31;;;;;;;;;32.25;31.50;;;;;5.40;73.71;101666.66;4996215;28;45289;-67
2023/01/30 02:36:15;;;;;;;;;33.50;33.00;;;;;5.41;73.50;101670.13;4994333;27;45327;-69
2023/01/30 02:38:51;;;;;;;;;34.75;33.75;;;;;5.39;73.10;101662.31;4993426;28;46593;-67
2023/01/30 02:41:42;;;;;;;;;33.25;32.50;;;;;5.37;72.60;101658.84;4995175;28;45429;-69
2023/01/30 02:44:54;;;;;;;;;29.75;29.75;;;;;5.35;73.01;101657.97;4995440;28;45529;-69
2023/01/30 02:48:00;;;;;;;;;29.25;29.25;;;;;5.35;73.10;101660.59;5006289;27;45505;-69
2023/01/30 02:50:41;;;;;;;;;32.50;32.50;;;;;5.35;72.75;101665.81;5033754;28;45478;-70
2023/01/30 02:53:07;;;;;;;;;41.00;36.50;;;;;5.34;72.94;101674.50;5017307;28;45499;-68
2023/01/30 02:55:32;;;;;;;;;35.50;34.00;;;;;5.34;72.66;101677.13;5010132;28;45544;-71
2023/01/30 02:57:59;;;;;;;;;31.00;30.75;;;;;5.11;72.94;101636.22;4993845;28;45611;-71
2023/01/30 03:00:47;;;;;;;;;37.25;33.75;;;;;5.33;72.85;101672.78;4992792;28;46003;-68
2023/01/30 03:03:30;;;;;;;;;32.25;32.25;;;;;5.32;73.22;101667.53;4999214;28;45517;-69
2023/01/30 03:05:58;;;;;;;;;33.50;32.75;;;;;5.32;73.48;101670.16;4993605;28;45413;-68
2023/01/30 03:08:33;;;;;;;;;33.50;32.00;;;;;5.31;73.38;101679.72;4994901;27;45243;-69
2023/01/30 03:11:07;;;;;;;;;32.25;32.25;;;;;5.31;73.05;101669.28;4994215;28;45292;-68
2023/01/30 03:13:53;;;;;;;;;34.50;33.25;;;;;5.33;73.21;101666.66;4993416;27;45445;-69
2023/01/30 03:16:32;;;;;;;;;32.00;32.00;;;;;5.34;73.11;101660.56;4992235;28;45184;-68
2023/01/30 03:19:02;;;;;;;;;35.50;34.50;;;;;4.84;73.33;101590.19;4953201;28;45466;-68
2023/01/30 03:21:27;;;;;;;;;33.25;31.50;;;;;5.28;73.80;101660.59;4952913;28;46187;-67
2023/01/30 03:23:53;;;;;;;;;36.25;33.50;;;;;5.35;73.81;101671.03;4952071;28;45395;-69
2023/01/30 03:26:23;;;;;;;;;36.00;33.75;;;;;5.34;73.19;101678.84;4954167;28;45678;-69
2023/01/30 03:28:50;;;;;;;;;36.00;34.00;;;;;5.35;74.05;101681.47;4956739;28;45449;-71
2023/01/30 03:31:15;;;;;;;;;33.50;32.25;;;;;5.34;75.11;101668.41;4952887;28;47066;-70
2023/01/30 03:33:41;;;;;;;;;30.25;30.25;;;;;5.30;75.32;101667.56;4954107;28;45228;-69
2023/01/30 03:36:08;;;;;;;;;33.75;33.00;;;;;5.27;75.67;101659.69;4952951;28;45281;-68
2023/01/30 03:38:34;;;;;;;;;35.75;33.00;;;;;5.26;75.83;101665.78;4955849;28;45351;-69
2023/01/30 03:41:00;;;;;;;;;36.00;33.50;;;;;5.23;76.11;101658.84;4954357;28;46165;-67
2023/01/30 03:43:25;;;;;;;;;35.50;34.25;;;;;5.23;75.99;101663.19;4953341;28;45438;-67
2023/01/30 03:45:50;;;;;;;;;32.50;32.50;;;;;5.22;76.33;101671.88;4953594;28;45251;-69
2023/01/30 03:48:16;;;;;;;;;34.25;33.25;;;;;5.21;76.04;101667.53;4953817;28;45207;-70
2023/01/30 03:50:41;;;;;;;;;31.75;31.75;;;;;5.09;75.89;101640.59;4953415;28;45417;-70
2023/01/30 03:53:06;;;;;;;;;33.25;31.00;;;;;5.16;76.12;101651.00;4954519;28;45466;-68
2023/01/30 03:55:32;;;;;;;;;29.75;29.75;;;;;5.15;76.66;101646.66;4956926;28;45227;-68
2023/01/30 03:57:57;;;;;;;;;35.00;33.00;;;;;5.14;77.22;101647.53;4954206;28;45326;-68
2023/01/30 04:00:22;;;;;;;;;34.75;33.75;;;;;5.10;77.05;101637.09;4953266;28;45347;-68
2023/01/30 04:02:48;;;;;;;;;33.25;32.50;;;;;5.13;77.38;101641.47;4953376;28;45336;-69
2023/01/30 04:05:13;;;;;;;;;33.75;33.25;;;;;5.12;77.33;101637.97;4953340;28;47439;-68
2023/01/30 04:07:39;;;;;;;;;31.00;30.50;;;;;5.11;77.42;101635.38;4968488;28;45537;-68
2023/01/30 04:10:05;;;;;;;;;26.25;26.25;;;;;5.18;76.94;101634.50;4953735;28;45967;-68
2023/01/30 04:12:30;;;;;;;;;33.00;32.00;;;;;5.16;77.29;101623.22;4953348;28;45327;-69
2023/01/30 04:14:55;;;;;;;;;36.50;34.25;;;;;5.17;77.16;101626.66;4953194;28;48030;-67
2023/01/30 04:17:20;;;;;;;;;32.75;32.75;;;;;5.19;77.40;101630.16;4952986;28;45529;-69
2023/01/30 04:19:46;;;;;;;;;31.00;31.00;;;;;5.21;77.42;101641.44;4952263;28;48045;-69
2023/01/30 04:22:11;;;;;;;;;31.50;31.50;;;;;5.19;77.26;101630.16;4952656;28;60081;-70
2023/01/30 04:24:36;;;;;;;;;37.75;33.25;;;;;5.16;77.25;101625.81;4953897;28;45231;-67
2023/01/30 04:27:02;;;;;;;;;37.00;34.50;;;;;5.16;77.36;101619.72;4953949;28;45550;-70
2023/01/30 04:29:27;;;;;;;;;35.50;34.50;;;;;5.20;77.12;101618.84;4956129;28;45758;-70
2023/01/30 04:31:52;;;;;;;;;31.00;28.75;;;;;5.07;77.89;101603.19;4956598;28;45178;-70
2023/01/30 04:34:18;;;;;;;;;36.50;34.50;;;;;5.24;77.37;101617.97;4956226;28;45651;-68
2023/01/30 04:36:43;;;;;;;;;34.75;34.00;;;;;5.22;77.39;101601.44;4956708;28;45288;-71
2023/01/30 04:39:08;;;;;;;;;35.50;33.75;;;;;5.19;77.95;101601.44;4956697;28;47890;-71
2023/01/30 04:41:34;;;;;;;;;33.00;33.00;;;;;5.21;78.47;101616.25;4957321;28;45138;-70
2023/01/30 04:43:59;;;;;;;;;31.25;29.75;;;;;5.20;78.26;101605.78;4957425;28;45172;-68
2023/01/30 04:46:24;;;;;;;;;30.75;28.50;;;;;5.18;78.33;101610.16;4956178;28;45372;-67
2023/01/30 04:48:50;;;;;;;;;33.50;33.00;;;;;5.16;78.53;101609.28;4955886;28;46180;-68
2023/01/30 04:51:15;;;;;;;;;35.50;33.50;;;;;5.14;78.44;101616.25;4954500;28;45237;-68
2023/01/30 04:53:40;;;;;;;;;32.50;31.75;;;;;5.17;78.67;101626.66;4956281;28;45592;-69
2023/01/30 04:56:06;;;;;;;;;34.50;33.25;;;;;5.20;78.31;101629.28;4957023;28;45538;-67
2023/01/30 04:58:31;;;;;;;;;31.50;30.00;;;;;5.18;78.25;101617.97;4957082;28;45353;-69
2023/01/30 05:01:14;;;;;;;;;32.00;30.75;;;;;5.22;78.43;101617.97;4956934;28;45323;-68
2023/01/30 05:03:40;;;;;;;;;34.00;32.00;;;;;5.22;78.31;101620.59;4956777;28;45249;-69
2023/01/30 05:06:06;;;;;;;;;34.25;33.50;;;;;5.18;77.74;101604.94;4957635;28;45510;-68
2023/01/30 05:08:31;;;;;;;;;31.50;31.25;;;;;5.26;78.42;101618.84;4957157;28;45396;-69
2023/01/30 05:10:57;;;;;;;;;34.50;33.00;;;;;5.25;78.05;101610.16;4957044;28;48573;-69
2023/01/30 05:13:22;;;;;;;;;32.00;32.00;;;;;5.30;78.16;101612.78;4957333;28;45276;-68
2023/01/30 05:15:47;;;;;;;;;34.75;32.75;;;;;5.32;78.23;101611.03;4958933;28;45570;-68
2023/01/30 05:18:12;;;;;;;;;32.75;30.75;;;;;5.31;78.44;101611.91;4957739;28;46827;-70
2023/01/30 05:20:38;;;;;;;;;29.75;29.25;;;;;5.34;77.99;101622.31;4956595;28;60682;-69
2023/01/30 05:23:03;;;;;;;;;30.50;30.50;;;;;5.35;78.05;101625.78;4957511;28;45331;-69
2023/01/30 05:25:28;;;;;;;;;36.50;33.50;;;;;5.36;78.62;101622.31;4958533;28;45429;-70
2023/01/30 05:27:54;;;;;;;;;34.00;31.75;;;;;5.39;78.59;101614.47;4956584;28;52919;-70
2023/01/30 05:30:19;;;;;;;;;32.75;32.50;;;;;5.40;77.85;101611.00;4956780;28;45330;-71
2023/01/30 05:32:44;;;;;;;;;34.25;32.25;;;;;5.28;78.67;101592.75;4956714;28;45523;-69
2023/01/30 05:35:10;;;;;;;;;34.00;32.75;;;;;5.35;78.74;101605.81;4955877;28;45466;-68
2023/01/30 05:37:36;;;;;;;;;42.50;35.00;;;;;5.41;78.85;101605.78;4955024;28;46169;-69
2023/01/30 05:40:02;;;;;;;;;35.50;34.25;;;;;5.47;78.99;101615.31;4954974;28;45278;-70
2023/01/30 05:42:27;;;;;;;;;35.75;32.00;;;;;5.43;79.05;101603.16;4955460;28;45371;-68
2023/01/30 05:44:53;;;;;;;;;33.50;32.75;;;;;5.39;79.49;101594.47;4955508;28;45613;-70
2023/01/30 05:47:18;;;;;;;;;33.25;31.75;;;;;5.46;79.71;101597.94;4954718;28;52691;-70
2023/01/30 05:49:43;;;;;;;;;32.00;31.00;;;;;5.49;79.47;101602.28;4955260;28;45316;-71
2023/01/30 05:52:09;;;;;;;;;31.75;30.75;;;;;5.49;79.67;101597.06;4955512;28;45632;-70
2023/01/30 05:54:34;;;;;;;;;31.25;30.75;;;;;5.49;79.53;101599.69;4955141;28;45541;-69
2023/01/30 05:56:59;;;;;;;;;30.00;29.00;;;;;5.51;79.38;101595.31;4955813;28;45586;-67
2023/01/30 05:59:25;;;;;;;;;34.75;33.00;;;;;5.49;79.82;101592.69;4954833;28;45395;-69
2023/01/30 06:01:50;;;;;;;;;33.00;30.25;;;;;5.55;79.27;101587.47;4955394;28;45408;-69
2023/01/30 06:04:15;;;;;;;;;32.75;31.00;;;;;5.56;79.50;101583.13;4956611;28;45287;-70
2023/01/30 06:06:41;;;;;;;;;30.25;28.25;;;;;5.55;80.05;101586.59;4955806;28;45351;-68
2023/01/30 06:09:06;;;;;;;;;23.25;23.25;;;;;5.52;80.33;101582.25;4954742;28;45235;-70
2023/01/30 06:11:31;;;;;;;;;37.50;36.00;;;;;5.50;79.83;101575.31;4954801;28;45393;-69
2023/01/30 06:13:56;;;;;;;;;32.50;31.50;;;;;5.51;80.43;101570.06;4955262;28;45510;-69
2023/01/30 06:16:22;;;;;;;;;37.75;35.50;;;;;5.44;80.86;101567.50;4956116;28;45741;-68
2023/01/30 06:18:47;;;;;;;;;30.75;30.75;;;;;5.45;80.66;101569.25;4953554;28;45463;-67
2023/01/30 06:21:14;;;;;;;;;30.25;30.25;;;;;5.48;80.73;101575.31;4955454;28;45426;-68
2023/01/30 06:23:40;;;;;;;;;33.75;32.50;;;;;5.49;80.43;101586.63;4955330;28;45399;-68
2023/01/30 06:26:06;;;;;;;;;32.50;29.75;;;;;5.50;81.05;101588.38;4954441;28;46215;-68
2023/01/30 06:28:31;;;;;;;;;24.50;24.25;;;;;5.51;80.65;101582.28;4954431;28;45252;-69
2023/01/30 06:30:57;;;;;;;;;32.25;31.25;;;;;5.51;81.40;101588.34;4954517;28;45417;-67
2023/01/30 06:33:22;;;;;;;;;33.50;32.75;;;;;5.51;80.60;101585.75;4954352;28;47784;-73
2023/01/30 06:35:50;;;;;;;;;30.75;27.75;;;;;5.52;80.90;101592.69;4954698;28;46239;-71
2023/01/30 06:38:16;;;;;;;;;28.50;28.50;;;;;5.54;81.39;101601.38;4954527;28;45328;-71
2023/01/30 06:40:47;;;;;;;;;30.00;30.00;;;;;5.52;81.07;101605.75;4953498;28;45394;-70
2023/01/30 06:43:13;;;;;;;;;27.50;25.25;;;;;5.58;81.32;101610.09;4953821;28;45510;-71
2023/01/30 06:45:39;;;;;;;;;37.50;34.75;;;;;5.60;81.07;101616.19;4967359;28;45643;-70
2023/01/30 06:48:04;;;;;;;;;29.00;29.00;;;;;5.62;81.62;101619.66;4972060;28;45558;-70
2023/01/30 06:50:31;;;;;;;;;27.50;26.75;;;;;5.61;81.39;101620.53;5058400;27;45330;-71
2023/01/30 06:52:57;;;;;;;;;29.25;29.25;;;;;5.66;81.91;101636.16;4987649;28;45284;-71
2023/01/30 06:55:25;;;;;;;;;30.50;30.25;;;;;5.70;82.11;101630.06;4955654;28;45515;-71
2023/01/30 06:58:07;;;;;;;;;32.00;30.50;;;;;5.69;82.26;101602.22;4963504;28;46533;-72
2023/01/30 07:00:34;;;;;;;;;28.25;28.25;;;;;5.77;81.65;101617.84;4965392;28;45521;-72
2023/01/30 07:03:00;;;;;;;;;27.75;26.75;;;;;5.79;81.92;101629.16;4973776;28;45517;-72
2023/01/30 07:05:25;;;;;;;;;27.25;27.25;;;;;5.76;81.72;101618.72;4959381;28;46042;-73
2023/01/30 07:07:51;;;;;;;;;29.00;29.00;;;;;5.80;81.63;101636.13;4968513;28;45465;-73
2023/01/30 07:10:17;;;;;;;;;30.50;30.25;;;;;5.80;82.32;101630.91;4968575;28;46008;-73
2023/01/30 07:12:44;;;;;;;;;32.50;31.75;;;;;5.86;82.11;101649.16;5015827;27;45170;-75
2023/01/30 07:15:09;;;;;;;;;28.25;26.00;;;;;5.80;82.12;101634.38;5075713;28;46232;-75
2023/01/30 07:17:35;;;;;;;;;27.50;27.50;;;;;5.87;82.11;101645.66;5022491;27;45441;-75
2023/01/30 07:20:00;;;;;;;;;31.00;30.00;;;;;5.77;82.43;101634.38;4976093;28;45388;-74
2023/01/30 07:22:26;;;;;;;;;71.00;60.00;;;;;5.86;83.18;101643.94;4996272;28;45311;-74
2023/01/30 07:24:51;;;;;;;;;33.00;32.75;;;;;5.90;82.97;101648.28;5075057;27;45934;-74
2023/01/30 07:27:16;;;;;;;;;32.25;32.00;;;;;5.93;82.87;101650.88;5016607;27;47801;-74
2023/01/30 07:29:42;;;;;;;;;37.75;35.00;;;;;5.95;82.95;101654.34;4988081;28;45443;-74
2023/01/30 07:32:13;;;;;;;;;27.25;26.25;;;;;5.87;83.09;101642.22;4957457;28;45462;-74
2023/01/30 07:34:39;;;;;;;;;25.00;25.00;;;;;5.89;82.75;101659.59;4961130;28;48126;-74
2023/01/30 07:37:04;;;;;;;;;28.75;28.75;;;;;5.90;82.71;101665.69;4967987;28;45439;-75
2023/01/30 07:39:29;;;;;;;;;27.75;27.50;;;;;5.89;82.36;101659.59;4973774;28;45249;-74
2023/01/30 07:41:55;;;;;;;;;28.25;28.25;;;;;5.92;82.77;101656.97;4971693;28;45370;-76
2023/01/30 07:44:20;;;;;;;;;27.25;25.75;;;;;5.97;83.39;101672.63;4972444;28;45815;-73
2023/01/30 07:46:45;;;;;;;;;28.50;28.50;;;;;5.96;83.09;101661.31;4973601;28;45284;-76
2023/01/30 07:49:11;;;;;;;;;29.00;28.25;;;;;5.98;83.07;101674.38;4974023;28;47500;-74
2023/01/30 07:51:37;;;;;;;;;25.25;25.25;;;;;5.97;83.31;101670.03;4974562;28;45314;-75
2023/01/30 07:54:03;;;;;;;;;40.00;35.75;;;;;5.94;83.43;101663.06;4972670;28;51181;-73
2023/01/30 07:56:29;;;;;;;;;32.00;32.00;;;;;5.97;83.70;101672.63;4974047;28;45315;-74
2023/01/30 07:58:55;;;;;;;;;29.25;29.25;;;;;5.90;84.04;101655.25;4974554;28;45366;-74
2023/01/30 08:01:20;;;;;;;;;29.50;28.25;;;;;5.96;84.77;101665.69;4972297;28;45463;-73
2023/01/30 08:03:48;;;;;;;;;29.50;29.25;;;;;5.86;84.94;101643.94;4971655;28;46991;-74
2023/01/30 08:06:14;;;;;;;;;30.50;29.75;;;;;5.87;85.33;101644.81;4973064;28;45430;-72
2023/01/30 08:08:39;;;;;;;;;30.75;29.75;;;;;5.92;85.53;101654.34;4971297;28;45296;-73
2023/01/30 08:11:05;;;;;;;;;29.75;29.50;;;;;5.95;85.78;101670.03;4972722;28;45506;-73
2023/01/30 08:13:31;;;;;;;;;26.00;26.00;;;;;5.91;86.15;101663.06;4966836;28;46003;-74
2023/01/30 08:16:00;;;;;;;;;29.25;28.50;;;;;5.96;86.71;101665.69;4970729;28;45504;-74
2023/01/30 08:18:27;;;;;;;;;28.25;28.25;;;;;5.95;85.86;101659.56;4971247;28;45482;-74
2023/01/30 08:20:59;;;;;;;;;27.50;27.00;;;;;5.93;86.19;101656.09;4973330;28;45386;-74
2023/01/30 08:23:25;;;;;;;;;28.75;28.25;;;;;5.96;86.10;101660.47;4974055;28;46478;-75
2023/01/30 08:25:55;;;;;;;;;30.25;30.25;;;;;5.96;85.87;101673.50;4974022;28;45417;-72
2023/01/30 08:28:20;;;;;;;;;21.25;21.25;;;;;5.94;85.70;101663.06;4972524;28;45395;-73
2023/01/30 08:30:47;;;;;;;;;29.50;28.75;;;;;5.96;85.60;101674.38;4972736;28;45234;-73
2023/01/30 08:33:13;;;;;;;;;28.75;28.75;;;;;5.98;85.48;101670.00;4972138;28;47091;-73
2023/01/30 08:35:38;;;;;;;;;25.50;24.50;;;;;5.98;84.87;101674.38;4974416;28;45333;-74
2023/01/30 08:38:10;;;;;;;;;30.25;29.75;;;;;6.03;86.28;101672.66;4972246;28;45426;-72
2023/01/30 08:40:36;;;;;;;;;27.00;27.00;;;;;6.07;85.79;101671.75;4971275;28;45370;-73
2023/01/30 08:43:01;;;;;;;;;33.00;31.75;;;;;6.05;85.45;101676.13;4972037;28;45279;-74
2023/01/30 08:45:27;;;;;;;;;36.00;34.50;;;;;6.12;85.23;101682.19;4972124;28;45390;-73
2023/01/30 08:47:56;;;;;;;;;32.75;32.75;;;;;6.11;86.05;101675.22;4971155;28;45428;-74
2023/01/30 08:50:21;;;;;;;;;31.75;31.75;;;;;6.04;86.25;101652.59;4965472;28;45680;-73
2023/01/30 08:52:46;;;;;;;;;28.50;27.00;;;;;6.19;85.87;101676.06;4951773;28;60505;-74
2023/01/30 08:55:12;;;;;;;;;31.25;29.75;;;;;6.23;85.89;101682.16;4965041;28;45272;-75
2023/01/30 08:57:37;;;;;;;;;33.00;32.00;;;;;6.25;85.84;101685.63;4971403;28;45384;-73
2023/01/30 09:00:03;;;;;;;;;25.50;25.50;;;;;6.28;86.11;101691.69;4971713;28;45299;-74
2023/01/30 09:02:29;;;;;;;;;27.00;25.00;;;;;6.26;85.49;101690.81;4971448;28;45482;-74
2023/01/30 09:04:54;;;;;;;;;20.25;20.25;;;;;6.26;84.41;101692.59;4969565;28;46252;-74
2023/01/30 09:07:20;;;;;;;;;28.75;26.75;;;;;6.29;85.44;101708.25;4959232;28;45401;-75
2023/01/30 09:09:45;;;;;;;;;29.75;28.00;;;;;6.26;86.09;101706.50;4952874;28;45205;-75
2023/01/30 09:12:10;;;;;;;;;23.75;23.75;;;;;6.24;86.42;101694.34;4954015;28;46999;-73
2023/01/30 09:14:35;;;;;;;;;28.75;27.00;;;;;6.25;86.12;101699.53;4958253;28;45380;-75
2023/01/30 09:17:01;;;;;;;;;24.25;24.25;;;;;6.33;85.43;101704.75;4955388;28;49475;-74
2023/01/30 09:19:27;;;;;;;;;25.50;25.50;;;;;6.36;85.16;101699.50;4955408;28;45383;-73
2023/01/30 09:21:53;;;;;;;;;19.75;19.75;;;;;6.39;84.75;101707.34;4954780;28;45382;-75
2023/01/30 09:24:25;;;;;;;;;29.50;27.75;;;;;6.45;85.37;101705.56;4954523;28;45288;-74
2023/01/30 09:26:50;;;;;;;;;25.00;25.00;;;;;6.41;85.01;101692.50;4955753;28;45283;-74
2023/01/30 09:29:16;;;;;;;;;27.00;27.00;;;;;6.30;84.67;101668.19;4954070;28;45288;-76
2023/01/30 09:31:41;;;;;;;;;21.75;21.75;;;;;6.53;84.65;101709.88;4953171;28;47239;-74
2023/01/30 09:34:06;;;;;;;;;19.00;19.00;;;;;6.52;84.63;101702.03;4955419;28;45451;-74
2023/01/30 09:36:32;;;;;;;;;24.75;24.75;;;;;6.60;85.00;101718.56;4955217;28;45455;-76
2023/01/30 09:38:57;;;;;;;;;23.00;23.00;;;;;6.60;84.62;101715.09;4954437;28;45579;-75
2023/01/30 09:41:25;;;;;;;;;25.25;25.25;;;;;6.63;84.28;101715.91;4938054;28;45932;-74
2023/01/30 09:44:03;;;;;;;;;26.50;26.50;;;;;6.67;84.30;101706.34;4955446;28;45339;-73
2023/01/30 09:47:01;;;;;;;;;27.50;27.50;;;;;6.70;84.68;101708.94;4953376;28;45211;-74
2023/01/30 09:49:53;;;;;;;;;25.75;25.75;;;;;6.72;84.92;101700.19;4954989;28;45400;-75
2023/01/30 09:53:00;;;;;;;;;23.25;23.25;;;;;6.76;84.76;101702.78;4955007;28;45512;-74
2023/01/30 09:55:28;;;;;;;;;26.75;26.75;;;;;6.72;84.73;101684.50;4933290;28;45486;-73
2023/01/30 09:57:57;;;;;;;;;22.50;22.50;;;;;6.82;83.65;101697.50;4961985;28;45553;-75
2023/01/30 10:00:43;;;;;;;;;25.25;24.75;;;;;6.81;84.57;101714.06;4974506;28;45464;-74
2023/01/30 10:03:22;;;;;;;;;27.75;27.75;;;;;6.64;84.52;101680.19;4974028;28;46709;-75
2023/01/30 10:05:53;;;;;;;;;22.75;22.75;;;;;6.81;85.38;101714.06;4974181;28;45474;-74
2023/01/30 10:08:39;;;;;;;;;38.75;34.25;;;;;6.83;85.04;101713.19;4976277;28;45315;-74
2023/01/30 10:11:37;;;;;;;;;31.00;29.75;;;;;6.82;85.36;101718.44;4974689;28;45298;-74
2023/01/30 10:14:23;;;;;;;;;28.50;28.50;;;;;6.89;85.71;101709.66;4974165;28;45382;-75
2023/01/30 10:17:06;;;;;;;;;23.75;23.75;;;;;6.93;86.10;101732.34;4974303;28;45346;-75
2023/01/30 10:19:49;;;;;;;;;24.50;24.50;;;;;6.96;86.51;101728.81;4974166;28;45377;-75
2023/01/30 10:22:35;;;;;;;;;20.75;20.75;;;;;6.98;86.80;101742.75;4974477;28;45265;-76
2023/01/30 10:25:06;;;;;;;;;20.25;20.25;;;;;7.00;86.99;101741.00;4971830;28;45391;-74
2023/01/30 10:27:33;;;;;;;;;23.75;23.50;;;;;7.01;86.01;101740.09;4971694;28;45745;-75
2023/01/30 10:30:03;;;;;;;;;22.50;22.50;;;;;7.05;85.98;101727.91;4973038;28;45429;-74
2023/01/30 10:32:40;;;;;;;;;22.50;22.50;;;;;7.12;85.77;101740.06;4973792;28;45361;-75
2023/01/30 10:35:15;;;;;;;;;24.25;24.25;;;;;7.20;86.31;101738.25;4973722;28;45427;-74
2023/01/30 10:38:16;;;;;;;;;18.00;18.00;;;;;7.26;85.82;101732.06;4974025;28;45272;-75
2023/01/30 10:41:06;;;;;;;;;20.50;20.50;;;;;7.33;85.47;101731.16;4972919;28;45432;-75
2023/01/30 10:43:43;;;;;;;;;21.75;21.75;;;;;7.40;85.34;101717.13;4974244;28;45409;-75
2023/01/30 10:46:33;;;;;;;;;20.75;20.75;;;;;7.45;84.55;101707.50;4972552;28;45901;-74
2023/01/30 10:49:10;;;;;;;;;19.50;19.50;;;;;7.47;84.39;101698.78;4973716;28;45457;-76
2023/01/30 10:52:01;;;;;;;;;23.00;23.00;;;;;7.62;84.96;101696.00;4973861;28;45374;-74
2023/01/30 10:54:41;;;;;;;;;16.75;16.75;;;;;7.69;84.13;101696.78;4975914;28;45366;-75
2023/01/30 10:57:16;;;;;;;;;18.00;18.00;;;;;7.76;84.66;101698.47;4973760;28;46428;-76
2023/01/30 10:59:58;;;;;;;;;20.50;20.50;;;;;7.85;84.04;101702.75;4973669;28;45346;-75
2023/01/30 11:02:34;;;;;;;;;20.50;20.50;;;;;7.86;83.74;101683.53;4972651;28;45558;-75
2023/01/30 11:05:08;;;;;;;;;20.75;20.75;;;;;8.01;83.75;101698.22;4972363;28;45425;-74
2023/01/30 11:07:33;;;;;;;;;20.25;20.25;;;;;8.06;83.35;101690.28;4973566;28;45481;-75
2023/01/30 11:09:59;;;;;;;;;27.25;27.25;;;;;8.14;82.67;101693.69;4973398;28;45429;-77
2023/01/30 11:12:25;;;;;;;;;23.75;23.75;;;;;8.19;82.47;101704.97;4974086;28;45362;-74
2023/01/30 11:14:51;;;;;;;;;14.75;14.75;;;;;8.23;82.27;101708.44;4974272;28;45347;-76
2023/01/30 11:17:19;;;;;;;;;19.00;19.00;;;;;8.24;82.14;101710.19;4975190;28;45408;-75
2023/01/30 11:19:44;;;;;;;;;13.50;13.50;;;;;8.20;81.73;101704.09;4974842;28;45320;-76
2023/01/30 11:22:13;;;;;;;;;15.75;15.75;;;;;8.19;81.50;101691.88;4973929;28;45341;-75
2023/01/30 11:24:40;;;;;;;;;10.00;9.50;;;;;8.18;81.27;101698.00;4973776;28;45804;-74
2023/01/30 11:27:24;;;;;;;;;13.50;13.50;;;;;8.22;81.28;101704.09;4973165;28;46400;-74
2023/01/30 11:30:01;;;;;;;;;13.25;13.25;;;;;8.25;81.38;101704.06;4971887;28;45502;-74
2023/01/30 11:32:28;;;;;;;;;11.50;11.50;;;;;8.25;81.04;101704.91;4973606;28;45393;-74